< < Back
Terminal Aerodrome Forecast


Current Version              Previous Versions:   1  2  3  4  5  6  7  8  9  

Terminal Aerodrome Forecast

457
FTUS44 KMRX 260523
TAFTYS
TAF
KTYS 260523Z 2606/2706 35007KT P6SM -RA OVC120
     FM260800 35003KT 4SM -RA OVC050
     FM261400 VRB03KT P6SM SCT040 SCT100
     FM262000 22005KT P6SM BKN100
     FM270200 22005KT 6SM -RA OVC040=

Latest METAR

782
SAUS80 KWBC 260400 RRE
MTRTYS
METAR KTYS 270353Z 22017G22KT 10SM -RA FEW039 BKN048 OVC060 07/M01 A3002
RMK AO2 RAB0257E11B43 SLP165 P0000 T00671006


USA.gov is the U.S. government's official web portal to all federal, state and local government web resources and services.